sensor_id;sensor_type;location;lat;lon;timestamp;temperature;humidity
8043;DHT22;4064;48.132;11.366;2022-12-10T00:01:45;0.70;99.90
8043;DHT22;4064;48.132;11.366;2022-12-10T00:04:12;0.70;99.90
8043;DHT22;4064;48.132;11.366;2022-12-10T00:06:38;0.70;99.90
8043;DHT22;4064;48.132;11.366;2022-12-10T00:09:07;0.70;99.90
8043;DHT22;4064;48.132;11.366;2022-12-10T00:11:33;0.60;99.90
8043;DHT22;4064;48.132;11.366;2022-12-10T00:13:59;0.60;99.90
8043;DHT22;4064;48.132;11.366;2022-12-10T00:16:26;0.60;99.90
8043;DHT22;4064;48.132;11.366;2022-12-10T00:18:53;0.70;99.90
8043;DHT22;4064;48.132;11.366;2022-12-10T00:21:22;0.60;99.90
8043;DHT22;4064;48.132;11.366;2022-12-10T00:23:48;0.70;99.90
8043;DHT22;4064;48.132;11.366;2022-12-10T00:26:22;0.70;99.90
8043;DHT22;4064;48.132;11.366;2022-12-10T00:28:48;0.70;99.90
8043;DHT22;4064;48.132;11.366;2022-12-10T00:31:17;0.70;99.90
8043;DHT22;4064;48.132;11.366;2022-12-10T00:33:44;0.60;99.90
8043;DHT22;4064;48.132;11.366;2022-12-10T00:36:13;0.60;99.90
8043;DHT22;4064;48.132;11.366;2022-12-10T00:38:39;0.60;99.90
8043;DHT22;4064;48.132;11.366;2022-12-10T00:41:05;0.60;99.90
8043;DHT22;4064;48.132;11.366;2022-12-10T00:43:31;0.60;99.90
8043;DHT22;4064;48.132;11.366;2022-12-10T00:45:57;0.70;99.90
8043;DHT22;4064;48.132;11.366;2022-12-10T00:48:23;0.60;99.90
8043;DHT22;4064;48.132;11.366;2022-12-10T00:51:16;0.60;99.90
8043;DHT22;4064;48.132;11.366;2022-12-10T00:53:43;0.60;99.90
8043;DHT22;4064;48.132;11.366;2022-12-10T00:56:11;0.60;99.90
8043;DHT22;4064;48.132;11.366;2022-12-10T00:58:38;0.60;99.90
8043;DHT22;4064;48.132;11.366;2022-12-10T01:01:30;0.60;99.90
8043;DHT22;4064;48.132;11.366;2022-12-10T01:04:21;0.60;99.90
8043;DHT22;4064;48.132;11.366;2022-12-10T01:06:48;0.50;99.90
8043;DHT22;4064;48.132;11.366;2022-12-10T01:09:18;0.50;99.90
8043;DHT22;4064;48.132;11.366;2022-12-10T01:11:46;0.50;99.90
8043;DHT22;4064;48.132;11.366;2022-12-10T01:14:15;0.50;99.90
8043;DHT22;4064;48.132;11.366;2022-12-10T01:16:43;0.50;99.90
8043;DHT22;4064;48.132;11.366;2022-12-10T01:19:09;0.50;99.90
8043;DHT22;4064;48.132;11.366;2022-12-10T01:21:35;0.60;99.90
8043;DHT22;4064;48.132;11.366;2022-12-10T01:24:00;0.50;99.90
8043;DHT22;4064;48.132;11.366;2022-12-10T01:26:29;0.50;99.90
8043;DHT22;4064;48.132;11.366;2022-12-10T01:28:55;0.50;99.90
8043;DHT22;4064;48.132;11.366;2022-12-10T01:31:24;0.50;99.90
8043;DHT22;4064;48.132;11.366;2022-12-10T01:33:50;0.50;99.90
8043;DHT22;4064;48.132;11.366;2022-12-10T01:36:18;0.50;99.90
8043;DHT22;4064;48.132;11.366;2022-12-10T01:38:45;0.50;99.90
8043;DHT22;4064;48.132;11.366;2022-12-10T01:41:22;0.50;99.90
8043;DHT22;4064;48.132;11.366;2022-12-10T01:43:54;0.40;99.90
8043;DHT22;4064;48.132;11.366;2022-12-10T01:46:21;0.50;99.90
8043;DHT22;4064;48.132;11.366;2022-12-10T01:48:47;0.40;99.90
8043;DHT22;4064;48.132;11.366;2022-12-10T01:51:14;0.50;99.90
8043;DHT22;4064;48.132;11.366;2022-12-10T01:53:40;0.50;99.90
8043;DHT22;4064;48.132;11.366;2022-12-10T01:56:08;0.40;99.90
8043;DHT22;4064;48.132;11.366;2022-12-10T01:58:34;0.40;99.90
8043;DHT22;4064;48.132;11.366;2022-12-10T02:01:16;0.40;99.90
8043;DHT22;4064;48.132;11.366;2022-12-10T02:09:38;0.40;99.90
8043;DHT22;4064;48.132;11.366;2022-12-10T02:12:25;0.50;99.90
8043;DHT22;4064;48.132;11.366;2022-12-10T02:14:54;0.50;99.90
8043;DHT22;4064;48.132;11.366;2022-12-10T02:17:44;0.40;99.90
8043;DHT22;4064;48.132;11.366;2022-12-10T02:20:15;0.40;99.90
8043;DHT22;4064;48.132;11.366;2022-12-10T02:22:46;0.40;99.90
8043;DHT22;4064;48.132;11.366;2022-12-10T02:25:15;0.40;99.90
8043;DHT22;4064;48.132;11.366;2022-12-10T02:27:50;0.40;99.90
8043;DHT22;4064;48.132;11.366;2022-12-10T02:30:17;0.40;99.90
8043;DHT22;4064;48.132;11.366;2022-12-10T02:32:44;0.40;99.90
8043;DHT22;4064;48.132;11.366;2022-12-10T02:35:20;0.40;99.90
8043;DHT22;4064;48.132;11.366;2022-12-10T02:38:09;0.40;99.90
8043;DHT22;4064;48.132;11.366;2022-12-10T02:40:37;0.40;99.90
8043;DHT22;4064;48.132;11.366;2022-12-10T02:43:06;0.40;99.90
8043;DHT22;4064;48.132;11.366;2022-12-10T02:45:33;0.40;99.90
8043;DHT22;4064;48.132;11.366;2022-12-10T02:48:00;0.40;99.90
8043;DHT22;4064;48.132;11.366;2022-12-10T02:50:27;0.50;99.90
8043;DHT22;4064;48.132;11.366;2022-12-10T02:52:52;0.50;99.90
8043;DHT22;4064;48.132;11.366;2022-12-10T02:55:18;0.50;99.90
8043;DHT22;4064;48.132;11.366;2022-12-10T02:58:03;0.60;99.90
8043;DHT22;4064;48.132;11.366;2022-12-10T03:00:39;0.50;99.90
8043;DHT22;4064;48.132;11.366;2022-12-10T03:05:54;0.40;99.90
8043;DHT22;4064;48.132;11.366;2022-12-10T03:08:26;0.40;99.90
8043;DHT22;4064;48.132;11.366;2022-12-10T03:11:01;0.40;99.90
8043;DHT22;4064;48.132;11.366;2022-12-10T03:13:35;0.40;99.90
8043;DHT22;4064;48.132;11.366;2022-12-10T03:16:04;0.40;99.90
8043;DHT22;4064;48.132;11.366;2022-12-10T03:18:32;0.40;99.90
8043;DHT22;4064;48.132;11.366;2022-12-10T03:21:02;0.40;99.90
8043;DHT22;4064;48.132;11.366;2022-12-10T03:23:29;0.40;99.90
8043;DHT22;4064;48.132;11.366;2022-12-10T03:25:58;0.40;99.90
8043;DHT22;4064;48.132;11.366;2022-12-10T03:28:26;0.40;99.90
8043;DHT22;4064;48.132;11.366;2022-12-10T03:30:52;0.40;99.90
8043;DHT22;4064;48.132;11.366;2022-12-10T03:33:20;0.40;99.90
8043;DHT22;4064;48.132;11.366;2022-12-10T03:35:46;0.40;99.90
8043;DHT22;4064;48.132;11.366;2022-12-10T03:38:13;0.40;99.90
8043;DHT22;4064;48.132;11.366;2022-12-10T03:40:39;0.50;99.90
8043;DHT22;4064;48.132;11.366;2022-12-10T03:43:05;0.40;99.90
8043;DHT22;4064;48.132;11.366;2022-12-10T03:45:30;0.40;99.90
8043;DHT22;4064;48.132;11.366;2022-12-10T03:47:56;0.40;99.90
8043;DHT22;4064;48.132;11.366;2022-12-10T03:50:21;0.40;99.90
8043;DHT22;4064;48.132;11.366;2022-12-10T03:52:47;0.50;99.90
8043;DHT22;4064;48.132;11.366;2022-12-10T03:55:13;0.50;99.90
8043;DHT22;4064;48.132;11.366;2022-12-10T03:57:38;0.40;99.90
8043;DHT22;4064;48.132;11.366;2022-12-10T04:00:05;0.50;99.90
8043;DHT22;4064;48.132;11.366;2022-12-10T04:02:31;0.40;99.90
8043;DHT22;4064;48.132;11.366;2022-12-10T04:04:56;0.40;99.90
8043;DHT22;4064;48.132;11.366;2022-12-10T04:07:22;0.40;99.90
8043;DHT22;4064;48.132;11.366;2022-12-10T04:09:47;0.40;99.90
8043;DHT22;4064;48.132;11.366;2022-12-10T04:12:13;0.40;99.90
8043;DHT22;4064;48.132;11.366;2022-12-10T04:14:39;0.40;99.90
8043;DHT22;4064;48.132;11.366;2022-12-10T04:17:23;0.40;99.90
8043;DHT22;4064;48.132;11.366;2022-12-10T04:19:48;0.40;99.90
8043;DHT22;4064;48.132;11.366;2022-12-10T04:22:14;0.40;99.90
8043;DHT22;4064;48.132;11.366;2022-12-10T04:24:59;0.40;99.90
8043;DHT22;4064;48.132;11.366;2022-12-10T04:27:53;0.50;99.90
8043;DHT22;4064;48.132;11.366;2022-12-10T04:30:19;0.40;99.90
8043;DHT22;4064;48.132;11.366;2022-12-10T04:32:45;0.50;99.90
8043;DHT22;4064;48.132;11.366;2022-12-10T04:35:10;0.40;99.90
8043;DHT22;4064;48.132;11.366;2022-12-10T04:37:36;0.40;99.90
8043;DHT22;4064;48.132;11.366;2022-12-10T04:40:03;0.50;99.90
8043;DHT22;4064;48.132;11.366;2022-12-10T04:42:29;0.50;99.90
8043;DHT22;4064;48.132;11.366;2022-12-10T04:44:54;0.50;99.90
8043;DHT22;4064;48.132;11.366;2022-12-10T04:47:20;0.50;99.90
8043;DHT22;4064;48.132;11.366;2022-12-10T04:49:45;0.50;99.90
8043;DHT22;4064;48.132;11.366;2022-12-10T04:52:13;0.40;99.90
8043;DHT22;4064;48.132;11.366;2022-12-10T04:54:39;0.40;99.90
8043;DHT22;4064;48.132;11.366;2022-12-10T04:57:06;0.50;99.90
8043;DHT22;4064;48.132;11.366;2022-12-10T04:59:31;0.50;99.90
8043;DHT22;4064;48.132;11.366;2022-12-10T05:01:57;0.50;99.90
8043;DHT22;4064;48.132;11.366;2022-12-10T05:04:23;0.50;99.90
8043;DHT22;4064;48.132;11.366;2022-12-10T05:06:49;0.40;99.90
8043;DHT22;4064;48.132;11.366;2022-12-10T05:09:15;0.40;99.90
8043;DHT22;4064;48.132;11.366;2022-12-10T05:11:42;0.40;99.90
8043;DHT22;4064;48.132;11.366;2022-12-10T05:14:11;0.30;99.90
8043;DHT22;4064;48.132;11.366;2022-12-10T05:16:37;0.30;99.90
8043;DHT22;4064;48.132;11.366;2022-12-10T05:19:02;0.40;99.90
8043;DHT22;4064;48.132;11.366;2022-12-10T05:21:29;0.40;99.90
8043;DHT22;4064;48.132;11.366;2022-12-10T05:24:14;0.40;99.90
8043;DHT22;4064;48.132;11.366;2022-12-10T05:26:40;0.40;99.90
8043;DHT22;4064;48.132;11.366;2022-12-10T05:29:05;0.40;99.90
8043;DHT22;4064;48.132;11.366;2022-12-10T05:31:31;0.40;99.90
8043;DHT22;4064;48.132;11.366;2022-12-10T05:33:57;0.40;99.90
8043;DHT22;4064;48.132;11.366;2022-12-10T05:36:27;0.30;99.90
8043;DHT22;4064;48.132;11.366;2022-12-10T05:38:54;0.30;99.90
8043;DHT22;4064;48.132;11.366;2022-12-10T05:41:26;0.30;99.90
8043;DHT22;4064;48.132;11.366;2022-12-10T05:43:54;0.30;99.90
8043;DHT22;4064;48.132;11.366;2022-12-10T05:46:22;0.40;99.90
8043;DHT22;4064;48.132;11.366;2022-12-10T05:48:49;0.40;99.90
8043;DHT22;4064;48.132;11.366;2022-12-10T05:51:20;0.40;99.90
8043;DHT22;4064;48.132;11.366;2022-12-10T05:53:46;0.40;99.90
8043;DHT22;4064;48.132;11.366;2022-12-10T05:56:14;0.30;99.90
8043;DHT22;4064;48.132;11.366;2022-12-10T05:58:41;0.40;99.90
8043;DHT22;4064;48.132;11.366;2022-12-10T06:01:10;0.30;99.90
8043;DHT22;4064;48.132;11.366;2022-12-10T06:03:36;0.30;99.90
8043;DHT22;4064;48.132;11.366;2022-12-10T06:06:03;0.30;99.90
8043;DHT22;4064;48.132;11.366;2022-12-10T06:08:29;0.30;99.90
8043;DHT22;4064;48.132;11.366;2022-12-10T06:10:54;0.30;99.90
8043;DHT22;4064;48.132;11.366;2022-12-10T06:13:21;0.30;99.90
8043;DHT22;4064;48.132;11.366;2022-12-10T06:15:47;0.30;99.90
8043;DHT22;4064;48.132;11.366;2022-12-10T06:18:12;0.30;99.90
8043;DHT22;4064;48.132;11.366;2022-12-10T06:20:39;0.30;99.90
8043;DHT22;4064;48.132;11.366;2022-12-10T06:23:05;0.30;99.90
8043;DHT22;4064;48.132;11.366;2022-12-10T06:25:32;0.30;99.90
8043;DHT22;4064;48.132;11.366;2022-12-10T06:27:58;0.30;99.90
8043;DHT22;4064;48.132;11.366;2022-12-10T06:30:24;0.20;99.90
8043;DHT22;4064;48.132;11.366;2022-12-10T06:32:50;0.20;99.90
8043;DHT22;4064;48.132;11.366;2022-12-10T06:35:15;0.20;99.90
8043;DHT22;4064;48.132;11.366;2022-12-10T06:37:41;0.20;99.90
8043;DHT22;4064;48.132;11.366;2022-12-10T06:40:07;0.30;99.90
8043;DHT22;4064;48.132;11.366;2022-12-10T06:42:33;0.30;99.90
8043;DHT22;4064;48.132;11.366;2022-12-10T06:44:58;0.30;99.90
8043;DHT22;4064;48.132;11.366;2022-12-10T06:47:24;0.30;99.90
8043;DHT22;4064;48.132;11.366;2022-12-10T06:49:49;0.20;99.90
8043;DHT22;4064;48.132;11.366;2022-12-10T06:52:15;0.20;99.90
8043;DHT22;4064;48.132;11.366;2022-12-10T06:54:41;0.30;99.90
8043;DHT22;4064;48.132;11.366;2022-12-10T06:57:06;0.30;99.90
8043;DHT22;4064;48.132;11.366;2022-12-10T06:59:32;0.30;99.90
8043;DHT22;4064;48.132;11.366;2022-12-10T07:01:58;0.30;99.90
8043;DHT22;4064;48.132;11.366;2022-12-10T07:04:24;0.30;99.90
8043;DHT22;4064;48.132;11.366;2022-12-10T07:06:49;0.30;99.90
8043;DHT22;4064;48.132;11.366;2022-12-10T07:09:15;0.30;99.90
8043;DHT22;4064;48.132;11.366;2022-12-10T07:11:41;0.30;99.90
8043;DHT22;4064;48.132;11.366;2022-12-10T07:14:07;0.30;99.90
8043;DHT22;4064;48.132;11.366;2022-12-10T07:16:34;0.30;99.90
8043;DHT22;4064;48.132;11.366;2022-12-10T07:19:01;0.30;99.90
8043;DHT22;4064;48.132;11.366;2022-12-10T07:21:35;0.30;99.90
8043;DHT22;4064;48.132;11.366;2022-12-10T07:24:03;0.40;99.90
8043;DHT22;4064;48.132;11.366;2022-12-10T07:26:32;0.40;99.90
8043;DHT22;4064;48.132;11.366;2022-12-10T07:28:59;0.40;99.90
8043;DHT22;4064;48.132;11.366;2022-12-10T07:31:25;0.30;99.90
8043;DHT22;4064;48.132;11.366;2022-12-10T07:33:52;0.30;99.90
8043;DHT22;4064;48.132;11.366;2022-12-10T07:36:19;0.30;99.90
8043;DHT22;4064;48.132;11.366;2022-12-10T07:38:45;0.30;99.90
8043;DHT22;4064;48.132;11.366;2022-12-10T07:41:12;0.30;99.90
8043;DHT22;4064;48.132;11.366;2022-12-10T07:43:40;0.30;99.90
8043;DHT22;4064;48.132;11.366;2022-12-10T07:46:08;0.30;99.90
8043;DHT22;4064;48.132;11.366;2022-12-10T07:48:35;0.30;99.90
8043;DHT22;4064;48.132;11.366;2022-12-10T07:51:01;0.40;99.90
8043;DHT22;4064;48.132;11.366;2022-12-10T07:53:27;0.40;99.90
8043;DHT22;4064;48.132;11.366;2022-12-10T07:55:53;0.50;99.90
8043;DHT22;4064;48.132;11.366;2022-12-10T07:58:18;0.40;99.90
8043;DHT22;4064;48.132;11.366;2022-12-10T08:00:44;0.40;99.90
8043;DHT22;4064;48.132;11.366;2022-12-10T08:03:10;0.50;99.90
8043;DHT22;4064;48.132;11.366;2022-12-10T08:05:35;0.50;99.90
8043;DHT22;4064;48.132;11.366;2022-12-10T08:08:01;0.40;99.90
8043;DHT22;4064;48.132;11.366;2022-12-10T08:10:27;0.50;99.90
8043;DHT22;4064;48.132;11.366;2022-12-10T08:12:52;0.50;99.90
8043;DHT22;4064;48.132;11.366;2022-12-10T08:15:18;0.40;99.90
8043;DHT22;4064;48.132;11.366;2022-12-10T08:17:43;0.40;99.90
8043;DHT22;4064;48.132;11.366;2022-12-10T08:20:09;0.50;99.90
8043;DHT22;4064;48.132;11.366;2022-12-10T08:22:35;0.50;99.90
8043;DHT22;4064;48.132;11.366;2022-12-10T08:25:01;0.50;99.90
8043;DHT22;4064;48.132;11.366;2022-12-10T08:27:28;0.50;99.90
8043;DHT22;4064;48.132;11.366;2022-12-10T08:29:57;0.40;99.90
8043;DHT22;4064;48.132;11.366;2022-12-10T08:32:23;0.40;99.90
8043;DHT22;4064;48.132;11.366;2022-12-10T08:34:48;0.50;99.90
8043;DHT22;4064;48.132;11.366;2022-12-10T08:37:14;0.50;99.90
8043;DHT22;4064;48.132;11.366;2022-12-10T08:39:40;0.40;99.90
8043;DHT22;4064;48.132;11.366;2022-12-10T08:42:05;0.50;99.90
8043;DHT22;4064;48.132;11.366;2022-12-10T08:44:31;0.50;99.90
8043;DHT22;4064;48.132;11.366;2022-12-10T08:46:57;0.50;99.90
8043;DHT22;4064;48.132;11.366;2022-12-10T08:49:22;0.60;99.90
8043;DHT22;4064;48.132;11.366;2022-12-10T08:51:48;0.50;99.90
8043;DHT22;4064;48.132;11.366;2022-12-10T08:54:14;0.60;99.90
8043;DHT22;4064;48.132;11.366;2022-12-10T08:56:39;0.60;99.90
8043;DHT22;4064;48.132;11.366;2022-12-10T08:59:06;0.60;99.90
8043;DHT22;4064;48.132;11.366;2022-12-10T09:01:32;0.60;99.90
8043;DHT22;4064;48.132;11.366;2022-12-10T09:03:58;0.70;99.90
8043;DHT22;4064;48.132;11.366;2022-12-10T09:06:24;0.70;99.90
8043;DHT22;4064;48.132;11.366;2022-12-10T09:08:51;0.70;99.90
8043;DHT22;4064;48.132;11.366;2022-12-10T09:11:25;0.70;99.90
8043;DHT22;4064;48.132;11.366;2022-12-10T09:13:51;0.70;99.90
8043;DHT22;4064;48.132;11.366;2022-12-10T09:16:17;0.70;99.90
8043;DHT22;4064;48.132;11.366;2022-12-10T09:18:43;0.70;99.90
8043;DHT22;4064;48.132;11.366;2022-12-10T09:21:12;0.70;99.90
8043;DHT22;4064;48.132;11.366;2022-12-10T09:23:39;0.80;99.90
8043;DHT22;4064;48.132;11.366;2022-12-10T09:26:07;0.80;99.90
8043;DHT22;4064;48.132;11.366;2022-12-10T09:28:32;0.80;99.90
8043;DHT22;4064;48.132;11.366;2022-12-10T09:30:59;0.80;99.90
8043;DHT22;4064;48.132;11.366;2022-12-10T09:33:27;0.80;99.90
8043;DHT22;4064;48.132;11.366;2022-12-10T09:35:53;0.70;99.90
8043;DHT22;4064;48.132;11.366;2022-12-10T09:38:19;0.70;99.90
8043;DHT22;4064;48.132;11.366;2022-12-10T09:40:55;0.70;99.90
8043;DHT22;4064;48.132;11.366;2022-12-10T09:49:16;0.60;99.90
8043;DHT22;4064;48.132;11.366;2022-12-10T09:51:46;0.60;99.90
8043;DHT22;4064;48.132;11.366;2022-12-10T09:54:33;0.60;99.90
8043;DHT22;4064;48.132;11.366;2022-12-10T09:57:00;0.60;99.90
8043;DHT22;4064;48.132;11.366;2022-12-10T09:59:36;0.60;99.90
8043;DHT22;4064;48.132;11.366;2022-12-10T10:04:48;0.60;99.90
8043;DHT22;4064;48.132;11.366;2022-12-10T10:07:23;0.60;99.90
8043;DHT22;4064;48.132;11.366;2022-12-10T10:09:53;0.60;99.90
8043;DHT22;4064;48.132;11.366;2022-12-10T10:12:20;0.60;99.90
8043;DHT22;4064;48.132;11.366;2022-12-10T10:14:45;0.70;99.90
8043;DHT22;4064;48.132;11.366;2022-12-10T10:17:20;0.70;99.90
8043;DHT22;4064;48.132;11.366;2022-12-10T10:19:48;0.70;99.90
8043;DHT22;4064;48.132;11.366;2022-12-10T10:22:15;0.70;99.90
8043;DHT22;4064;48.132;11.366;2022-12-10T10:24:43;0.70;99.90
8043;DHT22;4064;48.132;11.366;2022-12-10T10:27:14;0.80;99.90
8043;DHT22;4064;48.132;11.366;2022-12-10T10:29:42;0.80;99.90
8043;DHT22;4064;48.132;11.366;2022-12-10T10:32:21;0.80;99.90
8043;DHT22;4064;48.132;11.366;2022-12-10T10:34:55;0.80;99.90
8043;DHT22;4064;48.132;11.366;2022-12-10T10:37:27;0.80;99.90
8043;DHT22;4064;48.132;11.366;2022-12-10T10:39:55;0.80;99.90
8043;DHT22;4064;48.132;11.366;2022-12-10T10:42:41;0.80;99.90
8043;DHT22;4064;48.132;11.366;2022-12-10T10:48:18;0.80;99.90
8043;DHT22;4064;48.132;11.366;2022-12-10T10:50:51;0.80;99.90
8043;DHT22;4064;48.132;11.366;2022-12-10T10:56:31;0.90;99.90
8043;DHT22;4064;48.132;11.366;2022-12-10T10:59:06;0.90;99.90
8043;DHT22;4064;48.132;11.366;2022-12-10T11:04:38;0.90;99.90
8043;DHT22;4064;48.132;11.366;2022-12-10T11:09:55;1.00;99.90
8043;DHT22;4064;48.132;11.366;2022-12-10T11:12:38;1.00;99.90
8043;DHT22;4064;48.132;11.366;2022-12-10T11:15:28;1.00;99.90
8043;DHT22;4064;48.132;11.366;2022-12-10T11:17:55;1.00;99.90
8043;DHT22;4064;48.132;11.366;2022-12-10T11:20:27;1.10;99.90
8043;DHT22;4064;48.132;11.366;2022-12-10T11:22:58;1.00;99.90
8043;DHT22;4064;48.132;11.366;2022-12-10T11:25:50;1.10;99.90
8043;DHT22;4064;48.132;11.366;2022-12-10T11:48:26;1.10;99.90
8043;DHT22;4064;48.132;11.366;2022-12-10T11:51:05;1.10;99.90
8043;DHT22;4064;48.132;11.366;2022-12-10T11:53:53;1.10;99.90
8043;DHT22;4064;48.132;11.366;2022-12-10T11:56:36;1.10;99.90
8043;DHT22;4064;48.132;11.366;2022-12-10T11:59:29;1.10;99.90
8043;DHT22;4064;48.132;11.366;2022-12-10T12:07:48;0.90;99.90
8043;DHT22;4064;48.132;11.366;2022-12-10T12:13:09;0.90;99.90
8043;DHT22;4064;48.132;11.366;2022-12-10T12:20:40;0.80;99.90
8043;DHT22;4064;48.132;11.366;2022-12-10T12:23:19;0.80;99.90
8043;DHT22;4064;48.132;11.366;2022-12-10T12:25:50;0.80;99.90
8043;DHT22;4064;48.132;11.366;2022-12-10T12:28:21;0.80;99.90
8043;DHT22;4064;48.132;11.366;2022-12-10T12:30:50;0.90;99.90
8043;DHT22;4064;48.132;11.366;2022-12-10T12:33:28;0.80;99.90
8043;DHT22;4064;48.132;11.366;2022-12-10T12:36:04;0.80;99.90
8043;DHT22;4064;48.132;11.366;2022-12-10T12:38:47;0.80;99.90
8043;DHT22;4064;48.132;11.366;2022-12-10T12:44:56;0.80;99.90
8043;DHT22;4064;48.132;11.366;2022-12-10T12:47:05;0.80;99.90
8043;DHT22;4064;48.132;11.366;2022-12-10T12:49:38;0.80;99.90
8043;DHT22;4064;48.132;11.366;2022-12-10T12:52:28;0.80;99.90
8043;DHT22;4064;48.132;11.366;2022-12-10T12:55:01;0.80;99.90
8043;DHT22;4064;48.132;11.366;2022-12-10T12:57:46;0.80;99.90
8043;DHT22;4064;48.132;11.366;2022-12-10T13:00:19;0.80;99.90
8043;DHT22;4064;48.132;11.366;2022-12-10T13:05:38;0.70;99.90
8043;DHT22;4064;48.132;11.366;2022-12-10T13:11:32;0.70;99.90
8043;DHT22;4064;48.132;11.366;2022-12-10T13:13:35;0.70;99.90
8043;DHT22;4064;48.132;11.366;2022-12-10T13:16:45;0.70;99.90
8043;DHT22;4064;48.132;11.366;2022-12-10T13:42:38;0.60;99.90
8043;DHT22;4064;48.132;11.366;2022-12-10T13:50:40;0.50;99.90
8043;DHT22;4064;48.132;11.366;2022-12-10T13:53:19;0.40;99.90
8043;DHT22;4064;48.132;11.366;2022-12-10T13:56:19;0.40;99.90
8043;DHT22;4064;48.132;11.366;2022-12-10T13:59:03;0.40;99.90
8043;DHT22;4064;48.132;11.366;2022-12-10T14:02:03;0.30;99.90
8043;DHT22;4064;48.132;11.366;2022-12-10T14:07:22;0.30;99.90
8043;DHT22;4064;48.132;11.366;2022-12-10T14:09:51;0.30;99.90
8043;DHT22;4064;48.132;11.366;2022-12-10T14:12:29;0.30;99.90
8043;DHT22;4064;48.132;11.366;2022-12-10T14:15:00;0.30;99.90
8043;DHT22;4064;48.132;11.366;2022-12-10T14:17:46;0.30;99.90
8043;DHT22;4064;48.132;11.366;2022-12-10T14:20:18;0.30;99.90
8043;DHT22;4064;48.132;11.366;2022-12-10T14:22:48;0.30;99.90
8043;DHT22;4064;48.132;11.366;2022-12-10T14:25:17;0.30;99.90
8043;DHT22;4064;48.132;11.366;2022-12-10T14:27:46;0.30;99.90
8043;DHT22;4064;48.132;11.366;2022-12-10T14:30:22;0.30;99.90
8043;DHT22;4064;48.132;11.366;2022-12-10T14:32:49;0.30;99.90
8043;DHT22;4064;48.132;11.366;2022-12-10T14:35:20;0.30;99.90
8043;DHT22;4064;48.132;11.366;2022-12-10T14:37:47;0.30;99.90
8043;DHT22;4064;48.132;11.366;2022-12-10T14:40:23;0.30;99.90
8043;DHT22;4064;48.132;11.366;2022-12-10T14:42:52;0.20;99.90
8043;DHT22;4064;48.132;11.366;2022-12-10T14:45:20;0.30;99.90
8043;DHT22;4064;48.132;11.366;2022-12-10T14:47:47;0.30;99.90
8043;DHT22;4064;48.132;11.366;2022-12-10T14:50:16;0.20;99.90
8043;DHT22;4064;48.132;11.366;2022-12-10T14:52:45;0.20;99.90
8043;DHT22;4064;48.132;11.366;2022-12-10T14:55:15;0.20;99.90
8043;DHT22;4064;48.132;11.366;2022-12-10T14:57:59;0.20;99.90
8043;DHT22;4064;48.132;11.366;2022-12-10T15:00:27;0.20;99.90
8043;DHT22;4064;48.132;11.366;2022-12-10T15:05:24;0.20;99.90
8043;DHT22;4064;48.132;11.366;2022-12-10T15:07:59;0.20;99.90
8043;DHT22;4064;48.132;11.366;2022-12-10T15:10:38;0.10;99.90
8043;DHT22;4064;48.132;11.366;2022-12-10T15:13:05;0.10;99.90
8043;DHT22;4064;48.132;11.366;2022-12-10T15:15:36;0.10;99.90
8043;DHT22;4064;48.132;11.366;2022-12-10T15:18:12;0.20;99.90
8043;DHT22;4064;48.132;11.366;2022-12-10T15:20:54;0.10;99.90
8043;DHT22;4064;48.132;11.366;2022-12-10T15:28:30;0.50;99.90
8043;DHT22;4064;48.132;11.366;2022-12-10T15:36:31;0.20;99.90
8043;DHT22;4064;48.132;11.366;2022-12-10T15:39:27;0.10;99.90
8043;DHT22;4064;48.132;11.366;2022-12-10T15:41:56;0.00;99.90
8043;DHT22;4064;48.132;11.366;2022-12-10T15:44:45;0.00;99.90
8043;DHT22;4064;48.132;11.366;2022-12-10T15:47:26;0.00;99.90
8043;DHT22;4064;48.132;11.366;2022-12-10T15:49:53;-0.10;99.90
8043;DHT22;4064;48.132;11.366;2022-12-10T15:54:48;-0.10;99.90
8043;DHT22;4064;48.132;11.366;2022-12-10T15:57:23;-0.10;99.90
8043;DHT22;4064;48.132;11.366;2022-12-10T15:59:51;-0.10;99.90
8043;DHT22;4064;48.132;11.366;2022-12-10T16:04:50;-0.10;99.90
8043;DHT22;4064;48.132;11.366;2022-12-10T16:07:16;-0.10;99.90
8043;DHT22;4064;48.132;11.366;2022-12-10T16:09:43;-0.30;99.90
8043;DHT22;4064;48.132;11.366;2022-12-10T16:12:13;-0.30;99.90
8043;DHT22;4064;48.132;11.366;2022-12-10T16:14:44;-0.30;99.90
8043;DHT22;4064;48.132;11.366;2022-12-10T16:17:12;-0.30;99.90
8043;DHT22;4064;48.132;11.366;2022-12-10T16:19:37;-0.30;99.90
8043;DHT22;4064;48.132;11.366;2022-12-10T16:22:04;-0.30;99.90
8043;DHT22;4064;48.132;11.366;2022-12-10T16:24:30;-0.30;99.90
8043;DHT22;4064;48.132;11.366;2022-12-10T16:26:56;-0.30;99.90
8043;DHT22;4064;48.132;11.366;2022-12-10T16:29:21;-0.30;99.90
8043;DHT22;4064;48.132;11.366;2022-12-10T16:31:47;-0.30;99.90
8043;DHT22;4064;48.132;11.366;2022-12-10T16:34:13;-0.30;99.90
8043;DHT22;4064;48.132;11.366;2022-12-10T16:36:38;-0.30;99.90
8043;DHT22;4064;48.132;11.366;2022-12-10T16:39:04;-0.30;99.90
8043;DHT22;4064;48.132;11.366;2022-12-10T16:41:31;-0.40;99.90
8043;DHT22;4064;48.132;11.366;2022-12-10T16:43:57;-0.40;99.90
8043;DHT22;4064;48.132;11.366;2022-12-10T16:46:23;-0.30;99.90
8043;DHT22;4064;48.132;11.366;2022-12-10T16:48:48;-0.40;99.90
8043;DHT22;4064;48.132;11.366;2022-12-10T16:51:21;-0.40;99.90
8043;DHT22;4064;48.132;11.366;2022-12-10T16:53:47;-0.40;99.90
8043;DHT22;4064;48.132;11.366;2022-12-10T16:56:14;-0.40;99.90
8043;DHT22;4064;48.132;11.366;2022-12-10T16:58:40;-0.40;99.90
8043;DHT22;4064;48.132;11.366;2022-12-10T17:01:18;-0.50;99.90
8043;DHT22;4064;48.132;11.366;2022-12-10T17:03:44;-0.40;99.90
8043;DHT22;4064;48.132;11.366;2022-12-10T17:06:11;-0.40;99.90
8043;DHT22;4064;48.132;11.366;2022-12-10T17:08:37;-0.50;99.90
8043;DHT22;4064;48.132;11.366;2022-12-10T17:14:03;-0.50;99.90
8043;DHT22;4064;48.132;11.366;2022-12-10T17:16:30;-0.50;99.90
8043;DHT22;4064;48.132;11.366;2022-12-10T17:18:55;-0.60;99.90
8043;DHT22;4064;48.132;11.366;2022-12-10T17:21:21;-0.60;99.90
8043;DHT22;4064;48.132;11.366;2022-12-10T17:23:47;-0.60;99.90
8043;DHT22;4064;48.132;11.366;2022-12-10T17:26:28;-0.70;99.90
8043;DHT22;4064;48.132;11.366;2022-12-10T17:29:00;-0.70;99.90
8043;DHT22;4064;48.132;11.366;2022-12-10T17:31:26;-0.70;99.90
8043;DHT22;4064;48.132;11.366;2022-12-10T17:33:52;-0.70;99.90
8043;DHT22;4064;48.132;11.366;2022-12-10T17:36:18;-0.70;99.90
8043;DHT22;4064;48.132;11.366;2022-12-10T17:38:43;-0.60;99.90
8043;DHT22;4064;48.132;11.366;2022-12-10T17:41:10;-0.70;99.90
8043;DHT22;4064;48.132;11.366;2022-12-10T17:43:37;-0.70;99.90
8043;DHT22;4064;48.132;11.366;2022-12-10T17:46:09;-0.70;99.90
8043;DHT22;4064;48.132;11.366;2022-12-10T17:48:35;-0.70;99.90
8043;DHT22;4064;48.132;11.366;2022-12-10T17:51:01;-0.70;99.90
8043;DHT22;4064;48.132;11.366;2022-12-10T17:53:26;-0.70;99.90
8043;DHT22;4064;48.132;11.366;2022-12-10T17:55:59;-0.70;99.90
8043;DHT22;4064;48.132;11.366;2022-12-10T17:58:31;-0.70;99.90
8043;DHT22;4064;48.132;11.366;2022-12-10T18:00:56;-0.80;99.90
8043;DHT22;4064;48.132;11.366;2022-12-10T18:03:22;-0.80;99.90
8043;DHT22;4064;48.132;11.366;2022-12-10T18:05:48;-0.80;99.90
8043;DHT22;4064;48.132;11.366;2022-12-10T18:08:14;-0.80;99.90
8043;DHT22;4064;48.132;11.366;2022-12-10T18:10:42;-0.80;99.90
8043;DHT22;4064;48.132;11.366;2022-12-10T18:13:08;-0.80;99.90
8043;DHT22;4064;48.132;11.366;2022-12-10T18:15:33;-0.80;99.90
8043;DHT22;4064;48.132;11.366;2022-12-10T18:17:59;-0.80;99.90
8043;DHT22;4064;48.132;11.366;2022-12-10T18:20:27;-0.80;99.90